Time;durP1;ratioP1;P1;durP2;ratioP2;P2;SDS_P1;SDS_P2;PMS_P1;PMS_P2;Temp;Humidity;BMP_temperature;BMP_pressure;BME280_temperature;BME280_humidity;BME280_pressure;Samples;Min_cycle;Max_cycle;Signal;HPM_P1;HPM_P2
2021/04/06 00:00:13;;;;;;;5.80;3.55;;;;;;;;;;5137315;27;20015;-63
2021/04/06 00:02:40;;;;;;;5.05;3.60;;;;;;;;;;5118885;27;20111;-63
2021/04/06 00:05:07;;;;;;;3.85;3.08;;;;;;;;;;5135903;27;20026;-64
2021/04/06 00:07:34;;;;;;;4.05;3.30;;;;;;;;;;5137136;27;20366;-63
2021/04/06 00:10:02;;;;;;;4.68;3.35;;;;;;;;;;5137000;27;20027;-64
2021/04/06 00:12:28;;;;;;;4.35;3.20;;;;;;;;;;5137033;27;20030;-63
2021/04/06 00:14:56;;;;;;;7.13;2.83;;;;;;;;;;5136966;27;20012;-64
2021/04/06 00:17:22;;;;;;;3.63;3.22;;;;;;;;;;5136962;27;20111;-64
2021/04/06 00:19:48;;;;;;;4.03;3.03;;;;;;;;;;5136774;27;20051;-64
2021/04/06 00:22:15;;;;;;;4.55;2.92;;;;;;;;;;5100883;27;20039;-64
2021/04/06 00:24:42;;;;;;;3.15;2.65;;;;;;;;;;5136666;27;20076;-64
2021/04/06 00:27:19;;;;;;;5.30;2.97;;;;;;;;;;5136770;27;20031;-64
2021/04/06 00:29:48;;;;;;;4.28;2.75;;;;;;;;;;5136664;27;20031;-64
2021/04/06 00:32:16;;;;;;;3.97;2.38;;;;;;;;;;5136642;27;20073;-64
2021/04/06 00:34:42;;;;;;;5.03;3.53;;;;;;;;;;5136706;27;20038;-64
2021/04/06 00:37:09;;;;;;;4.70;3.15;;;;;;;;;;5135214;27;20354;-64
2021/04/06 00:39:35;;;;;;;3.83;3.20;;;;;;;;;;5136401;27;20038;-63
2021/04/06 00:42:12;;;;;;;5.10;3.30;;;;;;;;;;5136358;27;20464;-63
2021/04/06 00:44:46;;;;;;;3.83;3.17;;;;;;;;;;5136356;27;20031;-64
2021/04/06 00:47:12;;;;;;;3.83;3.15;;;;;;;;;;5136481;27;20019;-64
2021/04/06 00:49:39;;;;;;;6.07;3.75;;;;;;;;;;5135869;27;20012;-64
2021/04/06 00:52:05;;;;;;;5.32;3.08;;;;;;;;;;5118180;27;20031;-64
2021/04/06 00:54:32;;;;;;;5.32;3.40;;;;;;;;;;5135930;27;20062;-64
2021/04/06 00:57:01;;;;;;;5.00;3.72;;;;;;;;;;5136163;27;20057;-64
2021/04/06 00:59:26;;;;;;;6.85;4.88;;;;;;;;;;5136097;27;20065;-63
2021/04/06 01:01:54;;;;;;;4.22;3.88;;;;;;;;;;5136070;27;20027;-65
2021/04/06 01:04:24;;;;;;;4.40;4.07;;;;;;;;;;5117683;27;20484;-65
2021/04/06 01:07:08;;;;;;;4.07;3.63;;;;;;;;;;5136003;27;20046;-64
2021/04/06 01:09:37;;;;;;;5.43;3.67;;;;;;;;;;5135730;27;20179;-65
2021/04/06 01:12:07;;;;;;;4.72;3.60;;;;;;;;;;5135899;27;20082;-64
2021/04/06 01:14:40;;;;;;;4.25;3.70;;;;;;;;;;5135757;27;20015;-64
2021/04/06 01:17:11;;;;;;;3.88;3.13;;;;;;;;;;5134448;27;20465;-64
2021/04/06 01:19:38;;;;;;;3.80;3.42;;;;;;;;;;5135743;27;20437;-64
2021/04/06 01:22:05;;;;;;;4.82;4.32;;;;;;;;;;5135698;27;20086;-65
2021/04/06 01:24:31;;;;;;;3.90;3.58;;;;;;;;;;5135651;27;20034;-65
2021/04/06 01:26:58;;;;;;;4.40;4.00;;;;;;;;;;5117149;27;20480;-64
2021/04/06 01:29:27;;;;;;;5.35;4.40;;;;;;;;;;5117278;27;20031;-64
2021/04/06 01:31:53;;;;;;;4.75;4.30;;;;;;;;;;5117075;27;20007;-64
2021/04/06 01:34:19;;;;;;;5.43;4.45;;;;;;;;;;5134337;27;20049;-64
2021/04/06 01:36:45;;;;;;;5.20;3.55;;;;;;;;;;5135515;27;20023;-64
2021/04/06 01:39:12;;;;;;;4.65;3.67;;;;;;;;;;5135390;27;20031;-65
2021/04/06 01:41:38;;;;;;;3.45;3.13;;;;;;;;;;5135092;27;20488;-64
2021/04/06 01:44:04;;;;;;;4.72;4.03;;;;;;;;;;5134893;27;20109;-64
2021/04/06 01:46:40;;;;;;;4.05;3.45;;;;;;;;;;5135248;27;20022;-63
2021/04/06 01:49:05;;;;;;;3.22;2.80;;;;;;;;;;5135044;27;20035;-64
2021/04/06 01:51:31;;;;;;;3.17;2.88;;;;;;;;;;5135210;27;20029;-64
2021/04/06 01:53:57;;;;;;;3.65;2.38;;;;;;;;;;5134500;27;20561;-64
2021/04/06 01:56:25;;;;;;;2.60;2.40;;;;;;;;;;5134992;27;20035;-64
2021/04/06 01:58:54;;;;;;;2.83;2.58;;;;;;;;;;5134935;27;20027;-63
2021/04/06 02:01:24;;;;;;;2.30;2.10;;;;;;;;;;5134919;27;20031;-64
2021/04/06 02:04:03;;;;;;;2.88;2.00;;;;;;;;;;5134843;27;20600;-63
2021/04/06 02:06:30;;;;;;;2.45;1.77;;;;;;;;;;5134748;27;20047;-64
2021/04/06 02:08:56;;;;;;;2.17;1.95;;;;;;;;;;5134538;27;20011;-64
2021/04/06 02:11:27;;;;;;;2.67;1.77;;;;;;;;;;5134685;27;20027;-63
2021/04/06 02:14:02;;;;;;;1.73;1.58;;;;;;;;;;5134822;27;20107;-63
2021/04/06 02:16:39;;;;;;;4.07;1.92;;;;;;;;;;5134770;27;20358;-63
2021/04/06 02:19:05;;;;;;;2.70;1.88;;;;;;;;;;5134628;27;20125;-64
2021/04/06 02:21:30;;;;;;;2.75;1.95;;;;;;;;;;5134595;27;20499;-64
2021/04/06 02:23:56;;;;;;;2.10;1.58;;;;;;;;;;5134548;27;20034;-64
2021/04/06 02:26:22;;;;;;;3.22;1.92;;;;;;;;;;5116186;27;20522;-64
2021/04/06 02:28:53;;;;;;;2.58;1.83;;;;;;;;;;5116173;27;20057;-64
2021/04/06 02:31:24;;;;;;;1.67;1.50;;;;;;;;;;5134390;27;20443;-65
2021/04/06 02:33:52;;;;;;;2.47;1.40;;;;;;;;;;5134272;27;20019;-64
2021/04/06 02:36:18;;;;;;;2.25;1.60;;;;;;;;;;5134422;27;20483;-65
2021/04/06 02:38:44;;;;;;;3.92;1.90;;;;;;;;;;5115944;28;20027;-63
2021/04/06 02:41:11;;;;;;;2.20;1.60;;;;;;;;;;5134381;27;20019;-63
2021/04/06 02:43:54;;;;;;;2.40;1.52;;;;;;;;;;5132961;27;20027;-64
2021/04/06 02:46:21;;;;;;;1.77;1.08;;;;;;;;;;5134203;27;20027;-64
2021/04/06 02:48:47;;;;;;;1.55;1.20;;;;;;;;;;5133993;27;20039;-63
2021/04/06 02:51:13;;;;;;;2.50;1.70;;;;;;;;;;5115994;28;20503;-64
2021/04/06 02:53:39;;;;;;;2.53;2.00;;;;;;;;;;5133601;28;20047;-64
2021/04/06 02:56:05;;;;;;;2.33;1.63;;;;;;;;;;5134205;28;20030;-64
2021/04/06 02:58:38;;;;;;;2.58;1.38;;;;;;;;;;5134065;28;20011;-65
2021/04/06 03:01:11;;;;;;;2.70;1.70;;;;;;;;;;5134228;28;20110;-64
2021/04/06 03:03:37;;;;;;;3.30;1.65;;;;;;;;;;5134155;28;20031;-64
2021/04/06 03:06:04;;;;;;;2.30;1.70;;;;;;;;;;5133984;28;20023;-64
2021/04/06 03:08:30;;;;;;;2.25;1.55;;;;;;;;;;5115604;28;20038;-64
2021/04/06 03:10:56;;;;;;;2.38;1.40;;;;;;;;;;5133955;28;20023;-64
2021/04/06 03:13:23;;;;;;;4.70;1.77;;;;;;;;;;5115498;28;20023;-64
2021/04/06 03:15:50;;;;;;;2.88;1.85;;;;;;;;;;5133836;28;20346;-65
2021/04/06 03:18:16;;;;;;;2.72;1.63;;;;;;;;;;5115491;28;20030;-65
2021/04/06 03:20:42;;;;;;;2.38;1.55;;;;;;;;;;5115563;28;20027;-64
2021/04/06 03:23:08;;;;;;;3.33;1.50;;;;;;;;;;5133836;28;20396;-65
2021/04/06 03:25:37;;;;;;;2.55;1.63;;;;;;;;;;5133839;28;20023;-65
2021/04/06 03:28:09;;;;;;;1.55;1.42;;;;;;;;;;5133842;28;20030;-65
2021/04/06 03:30:35;;;;;;;1.92;1.50;;;;;;;;;;5133762;28;20035;-65
2021/04/06 03:33:00;;;;;;;3.65;1.48;;;;;;;;;;5132408;28;20105;-65
2021/04/06 03:35:26;;;;;;;2.85;1.50;;;;;;;;;;5133617;28;20545;-64
2021/04/06 03:37:58;;;;;;;3.28;1.55;;;;;;;;;;5133636;28;20373;-65
2021/04/06 03:40:35;;;;;;;3.63;1.70;;;;;;;;;;5133616;28;20042;-65
2021/04/06 03:43:20;;;;;;;2.42;1.67;;;;;;;;;;5133561;28;20534;-65
2021/04/06 03:45:59;;;;;;;2.17;1.75;;;;;;;;;;5115388;28;20035;-64
2021/04/06 03:48:26;;;;;;;3.38;1.73;;;;;;;;;;5132317;28;20031;-64
2021/04/06 03:50:52;;;;;;;2.63;1.80;;;;;;;;;;5133630;28;20461;-65
2021/04/06 03:53:23;;;;;;;2.50;1.70;;;;;;;;;;5132946;28;20082;-65
2021/04/06 03:56:08;;;;;;;1.95;1.55;;;;;;;;;;5133627;27;20047;-65
2021/04/06 03:58:57;;;;;;;2.42;1.52;;;;;;;;;;5137482;27;20385;-64
2021/04/06 04:01:20;;;;;;;2.03;1.67;;;;;;;;;;5136993;27;20374;-65
2021/04/06 04:03:45;;;;;;;3.35;1.73;;;;;;;;;;5135928;27;20015;-64
2021/04/06 04:06:21;;;;;;;2.00;1.80;;;;;;;;;;5137039;27;20027;-64
2021/04/06 04:08:46;;;;;;;3.22;1.60;;;;;;;;;;5137070;27;20366;-64
2021/04/06 04:11:12;;;;;;;2.30;1.65;;;;;;;;;;5137199;27;20022;-65
2021/04/06 04:13:38;;;;;;;3.45;1.88;;;;;;;;;;5137209;27;20048;-65
2021/04/06 04:16:04;;;;;;;3.58;1.80;;;;;;;;;;5137047;27;20404;-65
2021/04/06 04:18:29;;;;;;;3.33;1.65;;;;;;;;;;5136965;27;20046;-64
2021/04/06 04:20:55;;;;;;;2.20;1.77;;;;;;;;;;5136952;27;20023;-65
2021/04/06 04:23:20;;;;;;;1.55;1.42;;;;;;;;;;5118663;27;20047;-65
2021/04/06 04:25:46;;;;;;;2.75;2.20;;;;;;;;;;5136755;27;20012;-65
2021/04/06 04:28:11;;;;;;;3.50;1.90;;;;;;;;;;5136688;27;20058;-65
2021/04/06 04:30:47;;;;;;;3.45;1.95;;;;;;;;;;5136630;27;20028;-65
2021/04/06 04:33:13;;;;;;;4.03;2.10;;;;;;;;;;5136734;27;20019;-65
2021/04/06 04:35:38;;;;;;;3.33;2.08;;;;;;;;;;5136526;27;20417;-65
2021/04/06 04:38:05;;;;;;;3.30;2.00;;;;;;;;;;5136400;27;20027;-65
2021/04/06 04:40:31;;;;;;;4.07;2.22;;;;;;;;;;5136486;27;20019;-65
2021/04/06 04:42:57;;;;;;;2.30;2.05;;;;;;;;;;5136443;27;20034;-65
2021/04/06 04:45:23;;;;;;;3.00;1.75;;;;;;;;;;5101064;27;20156;-65
2021/04/06 04:47:49;;;;;;;2.50;1.65;;;;;;;;;;5136284;27;20113;-65
2021/04/06 04:50:15;;;;;;;2.42;1.33;;;;;;;;;;5117796;27;20484;-64
2021/04/06 04:52:44;;;;;;;2.72;1.77;;;;;;;;;;5135725;27;20073;-65
2021/04/06 04:55:11;;;;;;;2.05;1.70;;;;;;;;;;5136281;27;20035;-65
2021/04/06 04:57:36;;;;;;;4.00;1.73;;;;;;;;;;5136069;27;20102;-65
2021/04/06 05:00:02;;;;;;;2.15;1.48;;;;;;;;;;5136082;27;20054;-65
2021/04/06 05:02:28;;;;;;;3.13;1.77;;;;;;;;;;5136121;27;20027;-65
2021/04/06 05:04:59;;;;;;;5.70;2.40;;;;;;;;;;5136083;27;20457;-65
2021/04/06 05:07:32;;;;;;;2.10;1.85;;;;;;;;;;5135889;27;20037;-64
2021/04/06 05:09:57;;;;;;;3.00;1.90;;;;;;;;;;5117295;27;20035;-64
2021/04/06 05:12:23;;;;;;;4.15;2.67;;;;;;;;;;5135884;27;20098;-64
2021/04/06 05:14:49;;;;;;;2.20;1.75;;;;;;;;;;5135734;27;20027;-64
2021/04/06 05:17:15;;;;;;;2.40;2.20;;;;;;;;;;5135726;27;20011;-64
2021/04/06 05:19:40;;;;;;;4.03;2.55;;;;;;;;;;5135651;27;20031;-64
2021/04/06 05:22:06;;;;;;;3.83;2.10;;;;;;;;;;5135613;27;20023;-64
2021/04/06 05:24:32;;;;;;;3.53;2.10;;;;;;;;;;5135633;27;20092;-64
2021/04/06 05:26:57;;;;;;;4.90;2.28;;;;;;;;;;5135577;27;20521;-64
2021/04/06 05:29:23;;;;;;;2.08;1.27;;;;;;;;;;5117147;27;20028;-64
2021/04/06 05:31:48;;;;;;;2.28;1.73;;;;;;;;;;5135495;27;20030;-65
2021/04/06 05:34:14;;;;;;;3.45;1.80;;;;;;;;;;5135611;27;20031;-65
2021/04/06 05:36:39;;;;;;;5.05;2.22;;;;;;;;;;5135346;27;20022;-65
2021/04/06 05:39:05;;;;;;;4.82;2.30;;;;;;;;;;5135264;27;20136;-65
2021/04/06 05:41:30;;;;;;;5.20;2.33;;;;;;;;;;5134239;27;20022;-65
2021/04/06 05:43:59;;;;;;;4.18;1.83;;;;;;;;;;5135237;27;20432;-65
2021/04/06 05:46:25;;;;;;;3.88;2.00;;;;;;;;;;5135241;27;20039;-66
2021/04/06 05:48:51;;;;;;;3.45;1.80;;;;;;;;;;5116625;27;20031;-65
2021/04/06 05:51:17;;;;;;;5.60;2.80;;;;;;;;;;5135039;27;20434;-65
2021/04/06 05:53:43;;;;;;;2.67;1.88;;;;;;;;;;5134493;27;20039;-66
2021/04/06 05:56:09;;;;;;;4.38;1.98;;;;;;;;;;5134808;27;20029;-64
2021/04/06 05:58:35;;;;;;;3.38;2.22;;;;;;;;;;5135018;27;20488;-64
2021/04/06 06:01:00;;;;;;;3.25;2.35;;;;;;;;;;5134960;27;20015;-65
2021/04/06 06:03:26;;;;;;;4.80;2.55;;;;;;;;;;5134934;27;20046;-65
2021/04/06 06:05:52;;;;;;;4.45;1.90;;;;;;;;;;5134963;27;20035;-65
2021/04/06 06:08:18;;;;;;;7.60;3.35;;;;;;;;;;5134841;27;20479;-65
2021/04/06 06:10:44;;;;;;;5.43;2.92;;;;;;;;;;5134642;27;20023;-65
2021/04/06 06:13:23;;;;;;;3.85;2.72;;;;;;;;;;5134751;27;20461;-65
2021/04/06 06:16:04;;;;;;;3.07;1.90;;;;;;;;;;5116341;27;20485;-66
2021/04/06 06:18:30;;;;;;;5.45;3.35;;;;;;;;;;5134709;27;20038;-65
2021/04/06 06:20:55;;;;;;;5.28;3.10;;;;;;;;;;5134346;27;20007;-65
2021/04/06 06:23:27;;;;;;;2.35;1.83;;;;;;;;;;5134602;27;20487;-65
2021/04/06 06:26:19;;;;;;;5.22;2.78;;;;;;;;;;5134593;27;20106;-65
2021/04/06 06:29:03;;;;;;;5.05;3.10;;;;;;;;;;5130622;27;20039;-65
2021/04/06 06:31:36;;;;;;;3.47;2.70;;;;;;;;;;5134610;27;20024;-65
2021/04/06 06:34:21;;;;;;;4.63;2.90;;;;;;;;;;5134466;27;20034;-65
2021/04/06 06:36:58;;;;;;;6.95;3.22;;;;;;;;;;5134439;27;20023;-65
2021/04/06 06:39:25;;;;;;;3.53;2.47;;;;;;;;;;5116003;27;20027;-65
2021/04/06 06:41:57;;;;;;;5.00;2.88;;;;;;;;;;5134308;27;20042;-65
2021/04/06 06:44:23;;;;;;;3.85;2.38;;;;;;;;;;5134191;27;20023;-66
2021/04/06 06:47:00;;;;;;;3.55;2.83;;;;;;;;;;5134319;27;20042;-65
2021/04/06 06:49:39;;;;;;;3.42;2.42;;;;;;;;;;5134269;27;20028;-65
2021/04/06 06:52:23;;;;;;;6.78;3.13;;;;;;;;;;5134226;28;20473;-65
2021/04/06 06:54:57;;;;;;;3.67;2.88;;;;;;;;;;5134176;28;20068;-65
2021/04/06 06:57:35;;;;;;;3.53;2.78;;;;;;;;;;5115894;28;20026;-65
2021/04/06 07:00:07;;;;;;;4.68;2.80;;;;;;;;;;5134084;28;20076;-66
2021/04/06 07:02:33;;;;;;;7.18;3.45;;;;;;;;;;5134077;28;20034;-65
2021/04/06 07:05:18;;;;;;;4.88;2.67;;;;;;;;;;5115545;28;20023;-65
2021/04/06 07:07:49;;;;;;;7.10;3.10;;;;;;;;;;5134043;28;20034;-65
2021/04/06 07:10:15;;;;;;;4.38;2.42;;;;;;;;;;5115746;28;20039;-65
2021/04/06 07:13:01;;;;;;;6.43;3.30;;;;;;;;;;5133473;28;20031;-65
2021/04/06 07:15:28;;;;;;;6.18;3.75;;;;;;;;;;5119591;28;20035;-65
2021/04/06 07:17:58;;;;;;;6.93;3.33;;;;;;;;;;5116275;28;20023;-65
2021/04/06 07:20:24;;;;;;;7.30;4.05;;;;;;;;;;5134551;28;20032;-65
2021/04/06 07:22:51;;;;;;;7.07;3.20;;;;;;;;;;5133863;28;20022;-69
2021/04/06 07:25:18;;;;;;;4.57;2.90;;;;;;;;;;5127782;28;20028;-68
2021/04/06 07:27:43;;;;;;;6.22;4.22;;;;;;;;;;5132291;28;20437;-68
2021/04/06 07:30:11;;;;;;;7.18;4.13;;;;;;;;;;5133979;27;20038;-68
2021/04/06 07:32:39;;;;;;;8.70;4.15;;;;;;;;;;5136891;27;20060;-69
2021/04/06 07:35:05;;;;;;;6.35;2.95;;;;;;;;;;5138078;27;20031;-69
2021/04/06 07:37:31;;;;;;;7.45;4.10;;;;;;;;;;5137976;27;20019;-68
2021/04/06 07:40:00;;;;;;;6.95;4.00;;;;;;;;;;5138065;27;20082;-68
2021/04/06 07:42:26;;;;;;;7.90;5.37;;;;;;;;;;5153841;27;20560;-68
2021/04/06 07:44:52;;;;;;;5.70;3.90;;;;;;;;;;5137825;27;20106;-68
2021/04/06 07:47:34;;;;;;;5.30;3.38;;;;;;;;;;5137877;27;20057;-68
2021/04/06 07:50:00;;;;;;;6.88;3.70;;;;;;;;;;5138051;27;20033;-68
2021/04/06 07:52:25;;;;;;;5.63;3.10;;;;;;;;;;5137587;27;20015;-68
2021/04/06 07:54:51;;;;;;;7.13;5.38;;;;;;;;;;5137927;27;20465;-68
2021/04/06 07:57:17;;;;;;;3.35;2.78;;;;;;;;;;5137405;27;20050;-68
2021/04/06 07:59:44;;;;;;;4.32;3.10;;;;;;;;;;5137294;27;20034;-64
2021/04/06 08:02:09;;;;;;;4.47;3.58;;;;;;;;;;5108299;27;20080;-63
2021/04/06 08:04:38;;;;;;;6.63;3.78;;;;;;;;;;5134348;27;20497;-63
2021/04/06 08:07:32;;;;;;;9.27;4.20;;;;;;;;;;5126372;27;20011;-68
2021/04/06 08:10:09;;;;;;;7.85;4.53;;;;;;;;;;5116057;27;20039;-68
2021/04/06 08:12:36;;;;;;;4.38;2.90;;;;;;;;;;5137227;27;20064;-68
2021/04/06 08:15:08;;;;;;;6.53;3.35;;;;;;;;;;5136586;27;20018;-68
2021/04/06 08:17:34;;;;;;;3.30;2.70;;;;;;;;;;5133091;27;20024;-68
2021/04/06 08:19:59;;;;;;;4.15;3.22;;;;;;;;;;5132612;27;20379;-68
2021/04/06 08:22:26;;;;;;;4.72;3.38;;;;;;;;;;5137164;27;20088;-68
2021/04/06 08:24:52;;;;;;;6.45;3.40;;;;;;;;;;5137021;27;20007;-68
2021/04/06 08:27:34;;;;;;;7.70;3.63;;;;;;;;;;5136823;27;20027;-68
2021/04/06 08:30:18;;;;;;;6.80;3.80;;;;;;;;;;5127768;27;20027;-68
2021/04/06 08:32:56;;;;;;;4.57;2.97;;;;;;;;;;5116876;28;20330;-73
2021/04/06 08:35:53;;;;;;;4.30;3.17;;;;;;;;;;5128925;27;20024;-69
2021/04/06 08:38:22;;;;;;;8.82;4.15;;;;;;;;;;5119975;27;20130;-63
2021/04/06 08:40:52;;;;;;;4.50;2.05;;;;;;;;;;5135632;27;20011;-63
2021/04/06 08:43:19;;;;;;;6.38;3.22;;;;;;;;;;5132940;27;20084;-62
2021/04/06 08:45:56;;;;;;;6.10;3.03;;;;;;;;;;5131652;27;20023;-62
2021/04/06 08:48:41;;;;;;;4.90;3.47;;;;;;;;;;5121883;27;20473;-62
2021/04/06 08:51:20;;;;;;;6.15;3.60;;;;;;;;;;5134224;27;20034;-62
2021/04/06 08:54:09;;;;;;;5.28;3.40;;;;;;;;;;5117613;27;20043;-62
2021/04/06 08:56:36;;;;;;;6.22;3.70;;;;;;;;;;5111220;27;20042;-60
2021/04/06 08:59:12;;;;;;;6.88;2.92;;;;;;;;;;5134686;27;20380;-61
2021/04/06 09:01:38;;;;;;;5.68;2.97;;;;;;;;;;5125501;27;20353;-60
2021/04/06 09:04:29;;;;;;;6.65;3.15;;;;;;;;;;5133130;27;20094;-61
2021/04/06 09:06:55;;;;;;;5.47;2.42;;;;;;;;;;5128137;27;20039;-60
2021/04/06 09:09:23;;;;;;;6.32;3.28;;;;;;;;;;5121157;27;20418;-61
2021/04/06 09:11:49;;;;;;;5.63;3.47;;;;;;;;;;5128430;27;20011;-61
2021/04/06 09:14:16;;;;;;;7.90;4.03;;;;;;;;;;5115441;28;20095;-61
2021/04/06 09:16:41;;;;;;;6.57;4.05;;;;;;;;;;5124207;27;20028;-61
2021/04/06 09:19:11;;;;;;;6.70;3.60;;;;;;;;;;5136003;27;20023;-61
2021/04/06 09:21:37;;;;;;;5.70;3.85;;;;;;;;;;5129307;27;20172;-61
2021/04/06 09:24:05;;;;;;;8.50;3.75;;;;;;;;;;5115720;28;20015;-61
2021/04/06 09:26:30;;;;;;;8.82;4.18;;;;;;;;;;5132394;27;20031;-61
2021/04/06 09:29:16;;;;;;;6.35;3.00;;;;;;;;;;5134489;27;20011;-61
2021/04/06 09:31:46;;;;;;;3.08;2.22;;;;;;;;;;5127347;27;20027;-60
2021/04/06 09:34:22;;;;;;;5.10;2.70;;;;;;;;;;5127917;27;20481;-60
2021/04/06 09:37:11;;;;;;;2.67;2.33;;;;;;;;;;5128027;27;20030;-60
2021/04/06 09:39:39;;;;;;;4.72;3.00;;;;;;;;;;5121128;27;20126;-61
2021/04/06 09:42:05;;;;;;;4.97;2.97;;;;;;;;;;5135522;27;20030;-61
2021/04/06 09:44:32;;;;;;;5.40;2.85;;;;;;;;;;5135445;27;20081;-61
2021/04/06 09:47:01;;;;;;;4.75;2.85;;;;;;;;;;5130521;27;20020;-60
2021/04/06 09:49:31;;;;;;;12.47;6.37;;;;;;;;;;5115797;27;20031;-60
2021/04/06 09:51:57;;;;;;;2.72;2.33;;;;;;;;;;5117658;27;20012;-60
2021/04/06 09:54:26;;;;;;;3.20;2.28;;;;;;;;;;5131997;27;20045;-60
2021/04/06 09:56:52;;;;;;;4.22;2.17;;;;;;;;;;5132685;27;20080;-61
2021/04/06 09:59:18;;;;;;;5.82;2.67;;;;;;;;;;5134309;27;20031;-61
2021/04/06 10:01:52;;;;;;;4.45;2.90;;;;;;;;;;5134082;27;20030;-61
2021/04/06 10:04:35;;;;;;;4.45;2.63;;;;;;;;;;5134801;27;20038;-61
2021/04/06 10:07:06;;;;;;;3.47;2.20;;;;;;;;;;5134929;27;20026;-61
2021/04/06 10:09:34;;;;;;;4.25;1.90;;;;;;;;;;5135132;27;20035;-61
2021/04/06 10:12:00;;;;;;;3.00;2.03;;;;;;;;;;5135210;27;20027;-61
2021/04/06 10:14:26;;;;;;;2.38;1.70;;;;;;;;;;5135089;27;20023;-60
2021/04/06 10:17:02;;;;;;;4.03;1.90;;;;;;;;;;5135067;27;20076;-60
2021/04/06 10:19:29;;;;;;;3.40;2.10;;;;;;;;;;5135065;27;20051;-60
2021/04/06 10:21:59;;;;;;;6.10;2.70;;;;;;;;;;5134873;27;20034;-61
2021/04/06 10:24:26;;;;;;;4.72;2.30;;;;;;;;;;5134779;27;20083;-61
2021/04/06 10:27:15;;;;;;;3.38;2.33;;;;;;;;;;5133749;27;20044;-61
2021/04/06 10:29:41;;;;;;;4.60;2.47;;;;;;;;;;5134284;27;20027;-61
2021/04/06 10:32:07;;;;;;;3.92;2.28;;;;;;;;;;5134059;27;20406;-61
2021/04/06 10:34:33;;;;;;;3.58;2.47;;;;;;;;;;5115510;27;20028;-60
2021/04/06 10:37:01;;;;;;;3.53;2.38;;;;;;;;;;5114147;28;20068;-61
2021/04/06 10:39:31;;;;;;;2.20;1.90;;;;;;;;;;5114193;28;20035;-60
2021/04/06 10:41:57;;;;;;;2.83;2.27;;;;;;;;;;5114158;28;20027;-61
2021/04/06 10:44:23;;;;;;;5.13;2.17;;;;;;;;;;5113751;28;20090;-61
2021/04/06 10:46:49;;;;;;;3.28;2.33;;;;;;;;;;5114027;28;20096;-61
2021/04/06 10:49:14;;;;;;;4.55;2.03;;;;;;;;;;5114468;28;20062;-62
2021/04/06 10:51:47;;;;;;;4.60;2.20;;;;;;;;;;5123527;28;20019;-61
2021/04/06 10:54:15;;;;;;;5.60;2.25;;;;;;;;;;5129156;28;20039;-61
2021/04/06 10:56:52;;;;;;;4.00;1.75;;;;;;;;;;5134315;28;20357;-61
2021/04/06 10:59:35;;;;;;;4.57;2.30;;;;;;;;;;5132296;28;20369;-61
2021/04/06 11:02:01;;;;;;;5.45;2.60;;;;;;;;;;5130765;28;20019;-61
2021/04/06 11:04:29;;;;;;;3.78;2.50;;;;;;;;;;5116372;28;20084;-61
2021/04/06 11:07:06;;;;;;;3.60;1.98;;;;;;;;;;5115912;28;20045;-61
2021/04/06 11:09:45;;;;;;;4.82;2.88;;;;;;;;;;5110267;27;20163;-61
2021/04/06 11:12:12;;;;;;;4.43;2.30;;;;;;;;;;5120996;27;20031;-61
2021/04/06 11:14:38;;;;;;;4.38;2.17;;;;;;;;;;5101800;27;20027;-61
2021/04/06 11:17:05;;;;;;;4.78;2.30;;;;;;;;;;5154439;27;20392;-61
2021/04/06 11:19:31;;;;;;;3.38;1.77;;;;;;;;;;5138281;27;20068;-61
2021/04/06 11:21:57;;;;;;;3.10;2.28;;;;;;;;;;5151377;27;20023;-61
2021/04/06 11:24:24;;;;;;;46.90;13.32;;;;;;;;;;5138361;27;20098;-61
2021/04/06 11:26:50;;;;;;;13.18;5.30;;;;;;;;;;5138057;27;20027;-61
2021/04/06 11:29:16;;;;;;;3.95;2.10;;;;;;;;;;5138236;27;20111;-61
2021/04/06 11:31:44;;;;;;;2.90;1.75;;;;;;;;;;5137968;27;20062;-61
2021/04/06 11:34:09;;;;;;;3.15;2.03;;;;;;;;;;5138456;27;20023;-61
2021/04/06 11:36:35;;;;;;;6.07;2.28;;;;;;;;;;5137878;27;20088;-61
2021/04/06 11:39:03;;;;;;;3.45;1.80;;;;;;;;;;5138208;27;20444;-60
2021/04/06 11:41:28;;;;;;;4.45;2.40;;;;;;;;;;5138217;27;20547;-61
2021/04/06 11:43:54;;;;;;;2.83;1.80;;;;;;;;;;5138267;27;20054;-61
2021/04/06 11:46:20;;;;;;;3.67;1.92;;;;;;;;;;5137836;27;20096;-60
2021/04/06 11:48:47;;;;;;;3.70;2.03;;;;;;;;;;5138088;27;20365;-61
2021/04/06 11:51:13;;;;;;;4.00;2.35;;;;;;;;;;5138022;27;20023;-61
2021/04/06 11:53:39;;;;;;;1.92;1.83;;;;;;;;;;5137604;27;20040;-61
2021/04/06 11:56:04;;;;;;;4.22;2.80;;;;;;;;;;5137590;27;20039;-61
2021/04/06 11:58:30;;;;;;;3.05;2.50;;;;;;;;;;5137656;27;20019;-61
2021/04/06 12:00:56;;;;;;;2.75;2.30;;;;;;;;;;5153628;27;20065;-61
2021/04/06 12:03:21;;;;;;;1.88;1.58;;;;;;;;;;5136232;27;20106;-61
2021/04/06 12:05:47;;;;;;;2.47;2.03;;;;;;;;;;5137207;27;20031;-61
2021/04/06 12:08:12;;;;;;;2.70;1.65;;;;;;;;;;5137668;27;20019;-61
2021/04/06 12:10:39;;;;;;;2.85;1.60;;;;;;;;;;5135911;27;20498;-61
2021/04/06 12:13:05;;;;;;;5.22;2.72;;;;;;;;;;5136102;27;20019;-61
2021/04/06 12:15:31;;;;;;;3.95;2.22;;;;;;;;;;5137113;27;20353;-61
2021/04/06 12:17:56;;;;;;;2.53;2.08;;;;;;;;;;5135597;27;20364;-61
2021/04/06 12:20:23;;;;;;;4.32;2.72;;;;;;;;;;5136115;27;20031;-61
2021/04/06 12:22:50;;;;;;;3.67;2.53;;;;;;;;;;5137497;27;20494;-61
2021/04/06 12:25:17;;;;;;;4.85;2.08;;;;;;;;;;5137216;27;20399;-61
2021/04/06 12:27:43;;;;;;;2.70;2.22;;;;;;;;;;5136881;27;20050;-61
2021/04/06 12:30:11;;;;;;;3.25;2.15;;;;;;;;;;5136887;27;20087;-61
2021/04/06 12:32:37;;;;;;;4.32;2.50;;;;;;;;;;5136764;27;20019;-60
2021/04/06 12:35:06;;;;;;;2.50;1.85;;;;;;;;;;5118489;27;20027;-68
2021/04/06 12:37:32;;;;;;;3.53;2.25;;;;;;;;;;5136782;27;20026;-61
2021/04/06 12:39:59;;;;;;;2.45;1.77;;;;;;;;;;5135276;27;20066;-60
2021/04/06 12:42:26;;;;;;;4.28;2.30;;;;;;;;;;5118076;27;20035;-60
2021/04/06 12:44:52;;;;;;;5.13;3.40;;;;;;;;;;5136620;27;20030;-60
2021/04/06 12:47:18;;;;;;;5.97;3.35;;;;;;;;;;5136834;27;20060;-61
2021/04/06 12:49:43;;;;;;;3.10;2.75;;;;;;;;;;5136619;27;20051;-61
2021/04/06 12:52:09;;;;;;;4.13;2.75;;;;;;;;;;5136960;27;20048;-60
2021/04/06 12:54:34;;;;;;;2.60;1.98;;;;;;;;;;5136632;27;20473;-61
2021/04/06 12:57:00;;;;;;;2.08;1.85;;;;;;;;;;5136825;27;20035;-61
2021/04/06 12:59:25;;;;;;;3.10;1.67;;;;;;;;;;5136715;27;20537;-60
2021/04/06 13:01:51;;;;;;;4.20;2.63;;;;;;;;;;5135230;27;20025;-60
2021/04/06 13:04:17;;;;;;;3.58;2.53;;;;;;;;;;5136459;27;20072;-61
2021/04/06 13:06:43;;;;;;;5.47;2.95;;;;;;;;;;5136219;27;20058;-60
2021/04/06 13:09:09;;;;;;;2.92;2.53;;;;;;;;;;5136444;27;20107;-61
2021/04/06 13:11:34;;;;;;;2.30;2.03;;;;;;;;;;5136586;27;20461;-60
2021/04/06 13:14:03;;;;;;;3.45;2.47;;;;;;;;;;5117931;27;20031;-61
2021/04/06 13:16:32;;;;;;;2.83;2.45;;;;;;;;;;5136167;27;20085;-61
2021/04/06 13:18:57;;;;;;;3.30;2.30;;;;;;;;;;5136311;27;20517;-60
2021/04/06 13:21:23;;;;;;;3.55;2.30;;;;;;;;;;5136103;27;20039;-60
2021/04/06 13:23:49;;;;;;;2.95;2.40;;;;;;;;;;5135931;27;20053;-61
2021/04/06 13:26:14;;;;;;;4.55;2.53;;;;;;;;;;5136033;27;20019;-60
2021/04/06 13:28:40;;;;;;;4.97;2.47;;;;;;;;;;5116833;28;20035;-61
2021/04/06 13:31:05;;;;;;;2.40;2.20;;;;;;;;;;5135793;27;20067;-60
2021/04/06 13:33:33;;;;;;;2.47;2.13;;;;;;;;;;5134915;27;20031;-61
2021/04/06 13:35:58;;;;;;;1.92;1.73;;;;;;;;;;5135789;27;20022;-61
2021/04/06 13:38:25;;;;;;;3.65;1.92;;;;;;;;;;5135669;27;20027;-61
2021/04/06 13:40:50;;;;;;;2.13;1.17;;;;;;;;;;5134590;27;20019;-61
2021/04/06 13:43:16;;;;;;;1.83;1.60;;;;;;;;;;5133665;27;20042;-61
2021/04/06 13:45:41;;;;;;;3.03;2.47;;;;;;;;;;5135585;27;20110;-61
2021/04/06 13:48:08;;;;;;;1.60;1.48;;;;;;;;;;5134027;27;20023;-61
2021/04/06 13:50:34;;;;;;;2.80;1.80;;;;;;;;;;5135315;27;20019;-61
2021/04/06 13:53:01;;;;;;;2.88;2.10;;;;;;;;;;5135154;27;20059;-61
2021/04/06 13:55:27;;;;;;;3.03;2.22;;;;;;;;;;5135406;27;20039;-60
2021/04/06 13:57:53;;;;;;;3.67;2.80;;;;;;;;;;5135263;27;20019;-61
2021/04/06 14:00:21;;;;;;;3.17;2.33;;;;;;;;;;5132362;27;20049;-61
2021/04/06 14:02:47;;;;;;;2.63;2.15;;;;;;;;;;5133984;27;20027;-60
2021/04/06 14:05:12;;;;;;;2.60;1.95;;;;;;;;;;5134556;27;20483;-61
2021/04/06 14:07:39;;;;;;;2.90;1.77;;;;;;;;;;5135074;27;20030;-61
2021/04/06 14:10:07;;;;;;;2.75;1.90;;;;;;;;;;5116581;27;20014;-61
2021/04/06 14:12:32;;;;;;;1.73;1.63;;;;;;;;;;5134944;27;20054;-60
2021/04/06 14:14:58;;;;;;;1.73;1.60;;;;;;;;;;5134961;27;20457;-61
2021/04/06 14:17:23;;;;;;;2.30;1.95;;;;;;;;;;5135033;27;20377;-61
2021/04/06 14:19:49;;;;;;;1.70;1.60;;;;;;;;;;5134594;27;20106;-61
2021/04/06 14:22:14;;;;;;;1.80;1.70;;;;;;;;;;5116531;27;20038;-61
2021/04/06 14:24:40;;;;;;;1.70;1.50;;;;;;;;;;5134775;27;20030;-60
2021/04/06 14:27:05;;;;;;;2.38;1.67;;;;;;;;;;5135002;27;20019;-60
2021/04/06 14:29:31;;;;;;;1.80;1.50;;;;;;;;;;5116102;27;20029;-61
2021/04/06 14:31:56;;;;;;;2.50;1.73;;;;;;;;;;5134774;27;20023;-60
2021/04/06 14:34:22;;;;;;;4.15;2.20;;;;;;;;;;5133981;27;20064;-60
2021/04/06 14:36:48;;;;;;;4.28;2.55;;;;;;;;;;5114768;27;20019;-61
2021/04/06 14:39:14;;;;;;;2.65;2.17;;;;;;;;;;5129713;27;20571;-61
2021/04/06 14:44:49;;;;;;;3.67;1.90;;;;;;;;;;5134430;27;20404;-60
2021/04/06 14:47:14;;;;;;;3.05;2.22;;;;;;;;;;5134733;27;20484;-61
2021/04/06 14:49:40;;;;;;;2.25;1.90;;;;;;;;;;5133642;27;20019;-62
2021/04/06 14:52:06;;;;;;;2.08;1.80;;;;;;;;;;5134225;27;20031;-61
2021/04/06 14:54:32;;;;;;;3.67;1.85;;;;;;;;;;5133125;27;20035;-60